createdAt,value
2022-10-17T00:01:15.561Z,7.28
2022-10-17T00:03:43.860Z,6.88
2022-10-17T00:06:15.605Z,7.45
2022-10-17T00:08:45.085Z,7.88
2022-10-17T00:11:18.830Z,7.10
2022-10-17T00:13:47.755Z,7.30
2022-10-17T00:16:17.202Z,6.47
2022-10-17T00:18:45.453Z,7.10
2022-10-17T00:21:18.261Z,6.72
2022-10-17T00:23:46.833Z,6.85
2022-10-17T00:26:17.945Z,5.38
2022-10-17T00:28:48.755Z,5.70
2022-10-17T00:31:20.262Z,4.68
2022-10-17T00:33:49.705Z,4.80
2022-10-17T00:36:20.280Z,5.22
2022-10-17T00:38:52.189Z,5.53
2022-10-17T00:41:24.777Z,5.05
2022-10-17T00:44:00.170Z,5.03
2022-10-17T00:46:31.236Z,5.22
2022-10-17T00:49:04.476Z,4.90
2022-10-17T00:51:40.682Z,5.40
2022-10-17T00:54:10.927Z,6.18
2022-10-17T00:56:41.269Z,5.65
2022-10-17T00:59:10.873Z,5.88
2022-10-17T01:01:40.944Z,5.60
2022-10-17T01:04:09.873Z,5.63
2022-10-17T01:06:40.953Z,5.55
2022-10-17T01:09:09.905Z,4.63
2022-10-17T01:11:50.906Z,5.18
2022-10-17T01:14:30.991Z,5.47
2022-10-17T01:17:10.245Z,6.20
2022-10-17T01:20:06.921Z,4.55
2022-10-17T01:22:42.671Z,5.22
2022-10-17T01:25:31.193Z,5.75
2022-10-17T01:28:20.436Z,4.93
2022-10-17T01:31:07.842Z,5.28
2022-10-17T01:33:54.707Z,5.50
2022-10-17T01:36:38.122Z,5.93
2022-10-17T01:39:17.400Z,5.18
2022-10-17T01:41:51.440Z,5.65
2022-10-17T01:44:23.883Z,5.65
2022-10-17T01:46:59.548Z,5.15
2022-10-17T01:49:30.783Z,5.22
2022-10-17T01:52:05.160Z,5.55
2022-10-17T01:54:40.718Z,4.97
2022-10-17T01:57:14.357Z,4.70
2022-10-17T01:59:46.067Z,5.10
2022-10-17T02:02:17.889Z,5.55
2022-10-17T02:04:48.496Z,5.53
2022-10-17T02:07:17.107Z,5.38
2022-10-17T02:09:45.585Z,5.53
2022-10-17T02:12:36.407Z,5.15
2022-10-17T02:15:33.100Z,5.13
2022-10-17T02:18:17.663Z,4.40
2022-10-17T02:20:52.984Z,5.53
2022-10-17T02:23:31.378Z,5.18
2022-10-17T02:26:08.399Z,4.72
2022-10-17T02:28:46.142Z,4.35
2022-10-17T02:31:18.094Z,4.60
2022-10-17T02:33:53.899Z,5.22
2022-10-17T02:36:26.423Z,5.30
2022-10-17T02:38:56.845Z,4.90
2022-10-17T02:41:26.547Z,5.50
2022-10-17T02:43:57.701Z,4.45
2022-10-17T02:46:29.820Z,4.60
2022-10-17T02:49:04.612Z,4.07
2022-10-17T02:51:43.902Z,4.60
2022-10-17T02:54:18.975Z,5.18
2022-10-17T02:56:54.795Z,4.43
2022-10-17T02:59:26.267Z,4.30
2022-10-17T03:01:54.828Z,4.38
2022-10-17T03:04:24.524Z,4.13
2022-10-17T03:06:52.869Z,3.90
2022-10-17T03:09:21.100Z,4.30
2022-10-17T03:11:49.437Z,4.03
2022-10-17T03:14:17.838Z,3.70
2022-10-17T03:17:01.290Z,4.15
2022-10-17T03:19:31.159Z,3.90
2022-10-17T03:21:59.597Z,3.83
2022-10-17T03:24:27.842Z,3.70
2022-10-17T03:26:56.366Z,3.67
2022-10-17T03:29:24.964Z,3.80
2022-10-17T03:31:53.226Z,4.15
2022-10-17T03:34:21.712Z,5.93
2022-10-17T03:36:51.418Z,4.88
2022-10-17T03:39:20.713Z,3.88
2022-10-17T03:41:49.735Z,4.57
2022-10-17T03:44:18.053Z,4.47
2022-10-17T03:46:46.485Z,4.30
2022-10-17T03:49:14.886Z,4.47
2022-10-17T03:51:43.342Z,4.30
2022-10-17T03:54:16.478Z,4.00
2022-10-17T03:56:44.975Z,4.13
2022-10-17T03:59:17.469Z,4.13
2022-10-17T04:01:52.675Z,3.13
2022-10-17T04:04:21.026Z,3.25
2022-10-17T04:06:49.370Z,3.70
2022-10-17T04:09:19.293Z,3.67
2022-10-17T04:11:57.074Z,3.05
2022-10-17T04:14:26.222Z,11.43
2022-10-17T04:16:54.567Z,9.40
2022-10-17T04:19:23.412Z,3.40
2022-10-17T04:21:52.217Z,3.47
2022-10-17T04:24:22.200Z,3.55
2022-10-17T04:27:09.201Z,3.25
2022-10-17T04:29:42.401Z,3.50
2022-10-17T04:32:29.011Z,3.67
2022-10-17T04:35:04.951Z,3.85
2022-10-17T04:37:33.766Z,3.35
2022-10-17T04:40:11.232Z,4.10
2022-10-17T04:42:39.552Z,4.75
2022-10-17T04:45:09.621Z,3.97
2022-10-17T04:47:38.607Z,4.18
2022-10-17T04:50:07.841Z,3.83
2022-10-17T04:52:38.093Z,4.40
2022-10-17T04:55:09.051Z,4.40
2022-10-17T04:57:37.936Z,4.00
2022-10-17T05:00:16.847Z,4.25
2022-10-17T05:02:55.218Z,4.05
2022-10-17T05:05:23.449Z,4.40
2022-10-17T05:07:54.743Z,3.83
2022-10-17T05:10:28.074Z,4.40
2022-10-17T05:12:56.426Z,4.43
2022-10-17T05:15:28.928Z,5.35
2022-10-17T05:17:58.453Z,5.45
2022-10-17T05:20:28.639Z,3.60
2022-10-17T05:22:57.035Z,4.30
2022-10-17T05:25:26.787Z,3.92
2022-10-17T05:27:55.135Z,4.32
2022-10-17T05:30:27.115Z,4.18
2022-10-17T05:32:59.891Z,4.43
2022-10-17T05:35:28.358Z,4.30
2022-10-17T05:37:57.520Z,4.85
2022-10-17T05:40:28.443Z,3.60
2022-10-17T05:42:56.760Z,3.35
2022-10-17T05:45:26.366Z,3.60
2022-10-17T05:47:54.725Z,3.80
2022-10-17T05:50:24.224Z,4.50
2022-10-17T05:53:06.618Z,3.97
2022-10-17T05:55:42.269Z,4.40
2022-10-17T05:58:17.671Z,3.55
2022-10-17T06:01:00.121Z,3.67
2022-10-17T06:03:29.290Z,4.53
2022-10-17T06:05:59.576Z,3.88
2022-10-17T06:08:28.014Z,4.43
2022-10-17T06:10:57.679Z,3.35
2022-10-17T06:13:26.085Z,4.78
2022-10-17T06:15:55.765Z,4.25
2022-10-17T06:18:26.293Z,3.80
2022-10-17T06:20:55.208Z,5.72
2022-10-17T06:23:23.698Z,3.70
2022-10-17T06:26:06.581Z,3.50
2022-10-17T06:28:36.213Z,4.82
2022-10-17T06:31:07.401Z,5.63
2022-10-17T06:33:36.559Z,8.50
2022-10-17T06:36:08.204Z,5.90
2022-10-17T06:38:37.217Z,5.20
2022-10-17T06:41:14.655Z,3.60
2022-10-17T06:43:46.275Z,3.22
2022-10-17T06:46:46.855Z,3.28
2022-10-17T06:49:17.994Z,3.30
2022-10-17T06:51:51.913Z,3.60
2022-10-17T06:54:24.678Z,3.90
2022-10-17T06:57:06.337Z,3.00
2022-10-17T07:00:14.523Z,3.72
2022-10-17T07:05:16.507Z,3.72
2022-10-17T07:07:46.398Z,4.15
2022-10-17T07:10:17.047Z,3.40
2022-10-17T07:12:47.047Z,3.97
2022-10-17T07:15:15.549Z,4.57
2022-10-17T07:17:43.941Z,4.20
2022-10-17T07:20:12.966Z,3.75
2022-10-17T07:22:41.418Z,3.92
2022-10-17T07:25:10.953Z,3.67
2022-10-17T07:28:02.154Z,3.72
2022-10-17T07:30:30.716Z,4.70
2022-10-17T07:33:04.664Z,3.20
2022-10-17T07:35:33.165Z,3.17
2022-10-17T07:38:01.416Z,3.13
2022-10-17T07:40:29.907Z,3.40
2022-10-17T07:43:00.013Z,3.00
2022-10-17T07:45:29.139Z,3.22
2022-10-17T07:47:59.117Z,3.45
2022-10-17T07:50:27.549Z,2.50
2022-10-17T07:52:55.947Z,3.00
2022-10-17T07:55:24.237Z,3.67
2022-10-17T07:57:52.617Z,3.35
2022-10-17T08:00:22.258Z,2.72
2022-10-17T08:02:50.564Z,2.80
2022-10-17T08:05:19.011Z,11.32
2022-10-17T08:07:47.480Z,16.50
2022-10-17T08:10:17.615Z,3.00
2022-10-17T08:12:46.128Z,2.50
2022-10-17T08:15:14.610Z,2.30
2022-10-17T08:17:44.428Z,2.63
2022-10-17T08:20:13.241Z,2.05
2022-10-17T08:22:41.771Z,2.58
2022-10-17T08:25:10.960Z,2.45
2022-10-17T08:27:39.325Z,2.47
2022-10-17T08:30:09.520Z,2.53
2022-10-17T08:32:37.974Z,2.35
2022-10-17T08:35:08.713Z,2.33
2022-10-17T08:37:37.247Z,2.47
2022-10-17T08:40:07.174Z,3.72
2022-10-17T08:42:57.137Z,2.90
2022-10-17T08:45:33.395Z,2.13
2022-10-17T08:48:03.942Z,2.17
2022-10-17T08:50:40.547Z,2.13
2022-10-17T08:53:17.442Z,2.28
2022-10-17T08:55:48.683Z,2.40
2022-10-17T08:58:21.943Z,2.67
2022-10-17T09:01:03.456Z,2.35
2022-10-17T09:03:53.144Z,2.55
2022-10-17T09:06:29.940Z,2.00
2022-10-17T09:09:16.913Z,2.15
2022-10-17T09:11:58.035Z,1.83
2022-10-17T09:14:54.085Z,2.15
2022-10-17T09:17:36.444Z,1.98
2022-10-17T09:20:11.827Z,2.15
2022-10-17T09:22:49.213Z,1.90
2022-10-17T09:25:21.012Z,1.77
2022-10-17T09:27:53.672Z,1.95
2022-10-17T09:30:45.049Z,2.08
2022-10-17T09:33:34.419Z,2.97
2022-10-17T09:36:11.268Z,1.90
2022-10-17T09:38:44.146Z,2.05
2022-10-17T09:41:43.592Z,1.80
2022-10-17T09:44:20.396Z,1.95
2022-10-17T09:47:14.086Z,2.28
2022-10-17T09:49:44.814Z,2.25
2022-10-17T09:52:16.870Z,2.33
2022-10-17T09:54:50.104Z,2.50
2022-10-17T09:57:20.817Z,2.42
2022-10-17T09:59:58.715Z,1.90
2022-10-17T10:02:29.753Z,1.98
2022-10-17T10:05:05.102Z,2.22
2022-10-17T10:07:37.388Z,2.13
2022-10-17T10:10:09.970Z,2.00
2022-10-17T10:12:40.659Z,2.15
2022-10-17T10:15:34.408Z,2.35
2022-10-17T10:18:03.445Z,2.42
2022-10-17T10:20:36.303Z,2.30
2022-10-17T10:23:21.494Z,2.63
2022-10-17T10:28:28.402Z,2.60
2022-10-17T10:30:59.425Z,2.33
2022-10-17T10:33:31.186Z,2.30
2022-10-17T10:36:03.341Z,2.40
2022-10-17T10:38:33.813Z,2.63
2022-10-17T10:41:07.821Z,2.60
2022-10-17T10:43:40.459Z,1.92
2022-10-17T10:46:23.497Z,2.47
2022-10-17T10:48:55.349Z,2.25
2022-10-17T10:51:29.750Z,2.30
2022-10-17T10:54:06.491Z,2.45
2022-10-17T10:56:40.193Z,2.20
2022-10-17T10:59:20.116Z,2.40
2022-10-17T11:01:55.874Z,2.25
2022-10-17T11:04:33.911Z,2.20
2022-10-17T11:07:06.951Z,2.50
2022-10-17T11:09:54.080Z,2.35
2022-10-17T11:12:30.176Z,2.20
2022-10-17T11:15:05.176Z,2.25
2022-10-17T11:17:39.995Z,2.30
2022-10-17T11:20:19.375Z,2.17
2022-10-17T11:22:50.686Z,2.30
2022-10-17T11:25:33.158Z,1.98
2022-10-17T11:28:05.083Z,1.80
2022-10-17T11:33:28.028Z,5.63
2022-10-17T11:36:04.546Z,3.35
2022-10-17T11:38:44.919Z,2.05
2022-10-17T11:41:18.395Z,2.20
2022-10-17T11:43:54.863Z,2.47
2022-10-17T11:46:26.121Z,1.90
2022-10-17T11:49:08.960Z,2.22
2022-10-17T11:52:02.899Z,1.98
2022-10-17T11:54:37.727Z,1.92
2022-10-17T11:57:25.879Z,2.10
2022-10-17T12:00:09.003Z,1.90
2022-10-17T12:02:43.836Z,2.28
2022-10-17T12:05:23.602Z,1.95
2022-10-17T12:07:57.468Z,2.10
2022-10-17T12:10:40.298Z,2.08
2022-10-17T12:13:57.866Z,2.10
2022-10-17T12:16:46.120Z,1.90
2022-10-17T12:19:38.113Z,1.50
2022-10-17T12:22:20.711Z,1.42
2022-10-17T12:25:01.322Z,1.50
2022-10-17T12:27:45.946Z,1.80
2022-10-17T12:30:24.543Z,1.88
2022-10-17T12:33:07.435Z,1.70
2022-10-17T12:35:39.107Z,1.48
2022-10-17T12:38:27.835Z,1.55
2022-10-17T12:41:01.600Z,1.67
2022-10-17T12:43:57.071Z,3.55
2022-10-17T12:46:51.043Z,1.63
2022-10-17T12:49:43.259Z,1.40
2022-10-17T12:52:54.903Z,1.70
2022-10-17T12:55:26.837Z,1.45
2022-10-17T12:58:00.244Z,1.80
2022-10-17T13:00:37.119Z,1.90
2022-10-17T13:03:13.269Z,1.60
2022-10-17T13:05:49.457Z,1.70
2022-10-17T13:08:22.189Z,1.38
2022-10-17T13:10:53.507Z,1.70
2022-10-17T13:13:37.633Z,1.65
2022-10-17T13:16:06.645Z,1.75
2022-10-17T13:18:35.577Z,2.00
2022-10-17T13:21:08.487Z,2.10
2022-10-17T13:23:39.077Z,1.80
2022-10-17T13:26:16.120Z,2.00
2022-10-17T13:28:44.918Z,2.10
2022-10-17T13:31:31.824Z,1.80
2022-10-17T13:34:02.940Z,1.85
2022-10-17T13:36:35.474Z,1.80
2022-10-17T13:39:12.196Z,1.65
2022-10-17T13:41:41.967Z,2.03
2022-10-17T13:44:15.503Z,1.70
2022-10-17T13:46:45.076Z,1.83
2022-10-17T13:49:23.176Z,1.70
2022-10-17T13:51:57.058Z,1.63
2022-10-17T13:54:40.179Z,1.80
2022-10-17T13:57:21.340Z,2.05
2022-10-17T13:59:52.673Z,1.40
2022-10-17T14:02:24.257Z,2.00
2022-10-17T14:05:16.700Z,1.58
2022-10-17T14:10:44.528Z,1.90
2022-10-17T14:13:24.304Z,1.63
2022-10-17T14:15:54.867Z,2.13
2022-10-17T14:18:33.269Z,2.60
2022-10-17T14:24:27.797Z,1.70
2022-10-17T14:26:58.984Z,2.25
2022-10-17T14:29:30.256Z,1.70
2022-10-17T14:32:06.057Z,1.60
2022-10-17T14:34:37.936Z,2.03
2022-10-17T14:37:11.841Z,1.92
2022-10-17T14:39:41.924Z,1.98
2022-10-17T14:42:20.580Z,1.70
2022-10-17T14:44:51.590Z,1.75
2022-10-17T14:47:42.820Z,1.52
2022-10-17T14:50:24.663Z,1.88
2022-10-17T14:53:05.930Z,2.05
2022-10-17T14:55:37.246Z,1.90
2022-10-17T14:58:18.085Z,1.88
2022-10-17T15:00:46.739Z,1.67
2022-10-17T15:03:15.292Z,1.92
2022-10-17T15:05:43.782Z,1.60
2022-10-17T15:08:14.910Z,1.80
2022-10-17T15:10:46.130Z,2.13
2022-10-17T15:13:27.699Z,2.00
2022-10-17T15:15:57.639Z,1.95
2022-10-17T15:18:26.060Z,1.63
2022-10-17T15:21:04.574Z,1.92
2022-10-17T15:23:34.993Z,1.88
2022-10-17T15:26:04.969Z,2.20
2022-10-17T15:28:33.383Z,2.00
2022-10-17T15:31:01.788Z,2.05
2022-10-17T15:33:30.232Z,2.47
2022-10-17T15:38:26.926Z,2.38
2022-10-17T15:40:55.355Z,2.30
2022-10-17T15:43:25.286Z,2.28
2022-10-17T15:45:53.860Z,2.30
2022-10-17T15:48:31.210Z,2.08
2022-10-17T15:50:59.738Z,1.80
2022-10-17T15:53:28.145Z,1.70
2022-10-17T15:55:56.688Z,2.28
2022-10-17T15:58:28.262Z,2.72
2022-10-17T16:00:56.626Z,2.58
2022-10-17T16:03:25.061Z,2.13
2022-10-17T16:05:53.443Z,2.33
2022-10-17T16:08:21.723Z,2.58
2022-10-17T16:10:50.658Z,2.50
2022-10-17T16:13:21.184Z,2.13
2022-10-17T16:15:51.492Z,2.28
2022-10-17T16:18:21.131Z,2.45
2022-10-17T16:20:49.627Z,2.20
2022-10-17T16:23:17.959Z,2.42
2022-10-17T16:25:46.351Z,2.13
2022-10-17T16:28:14.599Z,2.03
2022-10-17T16:30:46.170Z,3.13
2022-10-17T16:33:15.859Z,3.00
2022-10-17T16:35:45.699Z,5.15
2022-10-17T16:38:14.110Z,2.45
2022-10-17T16:40:42.590Z,2.60
2022-10-17T16:43:13.300Z,2.35
2022-10-17T16:45:42.042Z,2.97
2022-10-17T16:48:12.250Z,2.63
2022-10-17T16:50:42.302Z,2.72
2022-10-17T16:53:10.652Z,2.30
2022-10-17T16:55:39.150Z,2.17
2022-10-17T16:58:07.510Z,2.30
2022-10-17T17:00:36.065Z,2.70
2022-10-17T17:03:04.388Z,2.35
2022-10-17T17:05:32.804Z,1.90
2022-10-17T17:08:03.780Z,2.30
2022-10-17T17:10:32.229Z,2.60
2022-10-17T17:13:01.732Z,3.00
2022-10-17T17:15:30.359Z,2.28
2022-10-17T17:18:02.688Z,3.40
2022-10-17T17:20:34.809Z,2.70
2022-10-17T17:23:04.464Z,2.83
2022-10-17T17:25:35.233Z,2.22
2022-10-17T17:28:03.744Z,2.22
2022-10-17T17:30:33.059Z,2.65
2022-10-17T17:33:01.685Z,2.25
2022-10-17T17:35:31.389Z,2.85
2022-10-17T17:41:13.749Z,2.72
2022-10-17T17:43:42.236Z,2.58
2022-10-17T17:46:11.254Z,2.72
2022-10-17T17:48:41.049Z,2.03
2022-10-17T17:51:12.443Z,2.42
2022-10-17T17:53:41.711Z,2.50
2022-10-17T17:56:14.080Z,3.58
2022-10-17T17:58:45.547Z,3.30
2022-10-17T18:01:20.379Z,3.13
2022-10-17T18:03:52.753Z,3.83
2022-10-17T18:06:22.884Z,3.45
2022-10-17T18:08:53.462Z,3.03
2022-10-17T18:11:23.737Z,3.78
2022-10-17T18:13:55.753Z,4.07
2022-10-17T18:16:24.216Z,3.58
2022-10-17T18:18:52.628Z,3.47
2022-10-17T18:21:21.018Z,2.78
2022-10-17T18:23:50.313Z,3.13
2022-10-17T18:26:19.069Z,3.30
2022-10-17T18:28:50.681Z,3.15
2022-10-17T18:31:24.433Z,2.78
2022-10-17T18:33:53.774Z,3.67
2022-10-17T18:36:22.914Z,3.70
2022-10-17T18:38:51.389Z,4.68
2022-10-17T18:41:23.494Z,5.10
2022-10-17T18:43:55.029Z,5.97
2022-10-17T18:46:25.601Z,6.28
2022-10-17T18:48:54.688Z,6.95
2022-10-17T18:51:25.785Z,7.05
2022-10-17T18:53:56.496Z,7.57
2022-10-17T18:56:25.127Z,6.18
2022-10-17T18:58:55.391Z,6.38
2022-10-17T19:01:27.287Z,7.05
2022-10-17T19:03:58.482Z,7.18
2022-10-17T19:06:31.709Z,13.10
2022-10-17T19:09:00.409Z,8.68
2022-10-17T19:11:30.704Z,32.58
2022-10-17T19:14:12.708Z,36.55
2022-10-17T19:16:45.300Z,37.72
2022-10-17T19:19:16.907Z,22.33
2022-10-17T19:21:45.904Z,45.72
2022-10-17T19:24:16.757Z,13.48
2022-10-17T19:26:47.711Z,6.60
2022-10-17T19:29:18.944Z,5.53
2022-10-17T19:31:48.421Z,6.15
2022-10-17T19:34:18.030Z,5.90
2022-10-17T19:36:46.565Z,4.70
2022-10-17T19:39:17.979Z,5.30
2022-10-17T19:41:48.618Z,5.03
2022-10-17T19:44:18.926Z,4.97
2022-10-17T19:46:49.206Z,6.18
2022-10-17T19:49:18.112Z,6.00
2022-10-17T19:51:46.416Z,5.72
2022-10-17T19:54:18.301Z,6.00
2022-10-17T19:56:46.888Z,5.63
2022-10-17T19:59:18.296Z,5.53
2022-10-17T20:01:46.853Z,5.82
2022-10-17T20:04:15.573Z,5.60
2022-10-17T20:06:44.188Z,5.38
2022-10-17T20:09:16.694Z,5.13
2022-10-17T20:11:46.597Z,6.63
2022-10-17T20:14:14.976Z,4.25
2022-10-17T20:16:49.991Z,4.25
2022-10-17T20:19:19.877Z,4.18
2022-10-17T20:21:48.155Z,4.18
2022-10-17T20:24:17.918Z,4.53
2022-10-17T20:26:46.977Z,4.43
2022-10-17T20:29:23.579Z,4.65
2022-10-17T20:31:53.175Z,4.88
2022-10-17T20:34:21.774Z,4.60
2022-10-17T20:36:50.733Z,4.90
2022-10-17T20:39:21.413Z,5.28
2022-10-17T20:41:50.112Z,4.32
2022-10-17T20:44:18.394Z,4.53
2022-10-17T20:47:00.713Z,4.70
2022-10-17T20:49:32.069Z,4.63
2022-10-17T20:52:01.820Z,4.65
2022-10-17T20:54:30.243Z,4.60
2022-10-17T20:57:01.131Z,4.53
2022-10-17T20:59:34.287Z,4.33
2022-10-17T21:02:02.904Z,4.97
2022-10-17T21:04:46.001Z,6.03
2022-10-17T21:07:15.653Z,6.75
2022-10-17T21:09:45.308Z,6.78
2022-10-17T21:12:21.583Z,6.53
2022-10-17T21:14:59.452Z,18.35
2022-10-17T21:17:28.151Z,9.60
2022-10-17T21:19:57.700Z,9.40
2022-10-17T21:22:26.086Z,6.72
2022-10-17T21:24:54.408Z,7.18
2022-10-17T21:27:22.738Z,7.00
2022-10-17T21:29:52.058Z,7.57
2022-10-17T21:32:33.340Z,7.20
2022-10-17T21:35:10.560Z,6.93
2022-10-17T21:37:38.888Z,6.82
2022-10-17T21:40:09.139Z,6.72
2022-10-17T21:42:37.362Z,6.68
2022-10-17T21:45:15.146Z,6.97
2022-10-17T21:47:54.956Z,6.15
2022-10-17T21:50:33.583Z,6.20
2022-10-17T21:53:01.812Z,6.00
2022-10-17T21:55:30.064Z,6.13
2022-10-17T21:57:58.385Z,6.05
2022-10-17T22:00:26.613Z,5.68
2022-10-17T22:02:54.921Z,5.80
2022-10-17T22:05:23.343Z,6.47
2022-10-17T22:07:52.898Z,6.93
2022-10-17T22:10:21.215Z,5.82
2022-10-17T22:12:49.423Z,5.78
2022-10-17T22:15:17.826Z,5.57
2022-10-17T22:17:46.066Z,5.57
2022-10-17T22:20:14.337Z,5.10
2022-10-17T22:22:42.537Z,5.32
2022-10-17T22:25:12.538Z,5.40
2022-10-17T22:27:41.004Z,5.30
2022-10-17T22:30:11.218Z,5.88
2022-10-17T22:32:39.446Z,5.30
2022-10-17T22:35:09.041Z,4.80
2022-10-17T22:37:37.567Z,4.53
2022-10-17T22:40:07.783Z,5.35
2022-10-17T22:42:37.562Z,4.63
2022-10-17T22:45:06.847Z,4.80
2022-10-17T22:47:35.111Z,5.05
2022-10-17T22:50:03.516Z,5.57
2022-10-17T22:52:31.992Z,4.82
2022-10-17T22:55:00.455Z,4.95
2022-10-17T22:57:28.665Z,4.63
2022-10-17T22:59:58.342Z,5.05
2022-10-17T23:02:26.661Z,4.45
2022-10-17T23:04:54.850Z,4.72
2022-10-17T23:07:23.243Z,4.80
2022-10-17T23:09:51.964Z,5.13
2022-10-17T23:12:20.654Z,4.70
2022-10-17T23:14:48.992Z,5.00
2022-10-17T23:17:19.078Z,4.97
2022-10-17T23:19:47.372Z,4.72
2022-10-17T23:22:15.627Z,4.88
2022-10-17T23:24:43.936Z,4.95
2022-10-17T23:27:12.287Z,4.50
2022-10-17T23:29:40.471Z,4.78
2022-10-17T23:32:08.839Z,4.63
2022-10-17T23:34:38.408Z,4.65
2022-10-17T23:37:06.778Z,4.60
2022-10-17T23:39:35.111Z,4.68
2022-10-17T23:42:03.324Z,5.28
2022-10-17T23:44:31.724Z,3.90
2022-10-17T23:47:00.086Z,4.07
2022-10-17T23:49:28.763Z,3.60
2022-10-17T23:51:58.481Z,3.80
2022-10-17T23:54:26.732Z,3.28
2022-10-17T23:56:55.026Z,3.33
2022-10-17T23:59:23.300Z,3.53
